sensor_id;sensor_type;location;lat;lon;timestamp;P1;durP1;ratioP1;P2;durP2;ratioP2
48181;SDS011;33976;47.436;18.876;2022-07-06T00:00:31;6.00;;;4.97;;
48181;SDS011;33976;47.436;18.876;2022-07-06T00:03:00;10.02;;;5.90;;
48181;SDS011;33976;47.436;18.876;2022-07-06T00:05:28;6.90;;;5.35;;
48181;SDS011;33976;47.436;18.876;2022-07-06T00:07:55;5.57;;;4.75;;
48181;SDS011;33976;47.436;18.876;2022-07-06T00:10:23;7.82;;;5.25;;
48181;SDS011;33976;47.436;18.876;2022-07-06T00:12:51;6.22;;;4.82;;
48181;SDS011;33976;47.436;18.876;2022-07-06T00:15:19;6.00;;;5.12;;
48181;SDS011;33976;47.436;18.876;2022-07-06T00:17:47;7.07;;;4.85;;
48181;SDS011;33976;47.436;18.876;2022-07-06T00:20:15;9.30;;;5.50;;
48181;SDS011;33976;47.436;18.876;2022-07-06T00:22:43;8.50;;;5.70;;
48181;SDS011;33976;47.436;18.876;2022-07-06T00:25:11;9.57;;;5.18;;
48181;SDS011;33976;47.436;18.876;2022-07-06T00:27:39;9.43;;;5.55;;
48181;SDS011;33976;47.436;18.876;2022-07-06T00:30:07;7.60;;;5.80;;
48181;SDS011;33976;47.436;18.876;2022-07-06T00:32:35;9.52;;;5.62;;
48181;SDS011;33976;47.436;18.876;2022-07-06T00:35:03;6.07;;;5.18;;
48181;SDS011;33976;47.436;18.876;2022-07-06T00:37:31;8.38;;;5.47;;
48181;SDS011;33976;47.436;18.876;2022-07-06T00:39:59;7.15;;;5.10;;
48181;SDS011;33976;47.436;18.876;2022-07-06T00:42:27;8.70;;;6.22;;
48181;SDS011;33976;47.436;18.876;2022-07-06T00:44:55;6.07;;;5.05;;
48181;SDS011;33976;47.436;18.876;2022-07-06T00:47:23;9.65;;;5.47;;
48181;SDS011;33976;47.436;18.876;2022-07-06T00:49:51;8.38;;;5.72;;
48181;SDS011;33976;47.436;18.876;2022-07-06T00:55:05;6.07;;;5.35;;
48181;SDS011;33976;47.436;18.876;2022-07-06T00:57:34;8.70;;;5.65;;
48181;SDS011;33976;47.436;18.876;2022-07-06T01:00:03;6.78;;;5.50;;
48181;SDS011;33976;47.436;18.876;2022-07-06T01:02:32;6.62;;;5.28;;
48181;SDS011;33976;47.436;18.876;2022-07-06T01:05:01;6.18;;;4.97;;
48181;SDS011;33976;47.436;18.876;2022-07-06T01:07:32;6.75;;;5.68;;
48181;SDS011;33976;47.436;18.876;2022-07-06T01:10:02;7.35;;;5.05;;
48181;SDS011;33976;47.436;18.876;2022-07-06T01:12:31;5.93;;;4.75;;
48181;SDS011;33976;47.436;18.876;2022-07-06T01:14:59;7.85;;;5.12;;
48181;SDS011;33976;47.436;18.876;2022-07-06T01:17:27;6.93;;;5.85;;
48181;SDS011;33976;47.436;18.876;2022-07-06T01:19:56;6.80;;;5.07;;
48181;SDS011;33976;47.436;18.876;2022-07-06T01:22:24;7.15;;;5.65;;
48181;SDS011;33976;47.436;18.876;2022-07-06T01:24:52;6.60;;;5.05;;
48181;SDS011;33976;47.436;18.876;2022-07-06T01:27:19;7.85;;;6.00;;
48181;SDS011;33976;47.436;18.876;2022-07-06T01:29:48;7.60;;;5.20;;
48181;SDS011;33976;47.436;18.876;2022-07-06T01:32:15;6.78;;;5.82;;
48181;SDS011;33976;47.436;18.876;2022-07-06T01:34:43;6.70;;;5.45;;
48181;SDS011;33976;47.436;18.876;2022-07-06T01:37:11;8.20;;;5.43;;
48181;SDS011;33976;47.436;18.876;2022-07-06T01:39:39;8.80;;;5.37;;
48181;SDS011;33976;47.436;18.876;2022-07-06T01:42:07;9.27;;;5.40;;
48181;SDS011;33976;47.436;18.876;2022-07-06T01:44:35;8.80;;;5.72;;
48181;SDS011;33976;47.436;18.876;2022-07-06T01:47:03;11.68;;;6.55;;
48181;SDS011;33976;47.436;18.876;2022-07-06T01:49:31;8.98;;;6.07;;
48181;SDS011;33976;47.436;18.876;2022-07-06T01:51:59;8.23;;;5.97;;
48181;SDS011;33976;47.436;18.876;2022-07-06T01:54:27;8.63;;;5.50;;
48181;SDS011;33976;47.436;18.876;2022-07-06T01:56:54;7.53;;;6.00;;
48181;SDS011;33976;47.436;18.876;2022-07-06T01:59:23;7.18;;;5.75;;
48181;SDS011;33976;47.436;18.876;2022-07-06T02:01:50;7.72;;;6.28;;
48181;SDS011;33976;47.436;18.876;2022-07-06T02:04:18;9.02;;;6.55;;
48181;SDS011;33976;47.436;18.876;2022-07-06T02:06:46;10.13;;;6.00;;
48181;SDS011;33976;47.436;18.876;2022-07-06T02:09:14;8.43;;;6.50;;
48181;SDS011;33976;47.436;18.876;2022-07-06T02:11:44;7.93;;;6.03;;
48181;SDS011;33976;47.436;18.876;2022-07-06T02:14:14;10.55;;;7.07;;
48181;SDS011;33976;47.436;18.876;2022-07-06T02:16:42;13.98;;;6.53;;
48181;SDS011;33976;47.436;18.876;2022-07-06T02:19:10;9.13;;;6.28;;
48181;SDS011;33976;47.436;18.876;2022-07-06T02:21:39;11.55;;;7.35;;
48181;SDS011;33976;47.436;18.876;2022-07-06T02:24:07;9.70;;;6.87;;
48181;SDS011;33976;47.436;18.876;2022-07-06T02:26:34;10.98;;;7.18;;
48181;SDS011;33976;47.436;18.876;2022-07-06T02:29:03;9.98;;;7.32;;
48181;SDS011;33976;47.436;18.876;2022-07-06T02:31:31;10.55;;;6.97;;
48181;SDS011;33976;47.436;18.876;2022-07-06T02:33:59;9.57;;;7.00;;
48181;SDS011;33976;47.436;18.876;2022-07-06T02:36:27;9.23;;;7.07;;
48181;SDS011;33976;47.436;18.876;2022-07-06T02:38:55;8.95;;;6.72;;
48181;SDS011;33976;47.436;18.876;2022-07-06T02:41:23;12.23;;;7.40;;
48181;SDS011;33976;47.436;18.876;2022-07-06T02:43:52;11.95;;;8.38;;
48181;SDS011;33976;47.436;18.876;2022-07-06T02:46:20;9.40;;;7.53;;
48181;SDS011;33976;47.436;18.876;2022-07-06T02:48:48;12.88;;;7.82;;
48181;SDS011;33976;47.436;18.876;2022-07-06T02:51:16;11.73;;;7.75;;
48181;SDS011;33976;47.436;18.876;2022-07-06T02:53:44;12.48;;;7.40;;
48181;SDS011;33976;47.436;18.876;2022-07-06T02:56:12;10.10;;;7.72;;
48181;SDS011;33976;47.436;18.876;2022-07-06T02:58:40;11.95;;;7.78;;
48181;SDS011;33976;47.436;18.876;2022-07-06T03:01:08;8.98;;;7.03;;
48181;SDS011;33976;47.436;18.876;2022-07-06T03:03:36;9.05;;;7.50;;
48181;SDS011;33976;47.436;18.876;2022-07-06T03:06:05;9.55;;;6.78;;
48181;SDS011;33976;47.436;18.876;2022-07-06T03:08:33;14.95;;;8.07;;
48181;SDS011;33976;47.436;18.876;2022-07-06T03:11:02;8.40;;;6.97;;
48181;SDS011;33976;47.436;18.876;2022-07-06T03:13:30;12.80;;;7.53;;
48181;SDS011;33976;47.436;18.876;2022-07-06T03:15:59;10.45;;;7.68;;
48181;SDS011;33976;47.436;18.876;2022-07-06T03:18:28;10.25;;;8.02;;
48181;SDS011;33976;47.436;18.876;2022-07-06T03:20:57;11.12;;;7.62;;
48181;SDS011;33976;47.436;18.876;2022-07-06T03:23:25;9.32;;;7.47;;
48181;SDS011;33976;47.436;18.876;2022-07-06T03:25:52;11.85;;;7.80;;
48181;SDS011;33976;47.436;18.876;2022-07-06T03:28:21;9.13;;;7.37;;
48181;SDS011;33976;47.436;18.876;2022-07-06T03:30:50;9.98;;;7.95;;
48181;SDS011;33976;47.436;18.876;2022-07-06T03:33:18;10.00;;;7.55;;
48181;SDS011;33976;47.436;18.876;2022-07-06T03:35:46;9.98;;;6.95;;
48181;SDS011;33976;47.436;18.876;2022-07-06T03:38:14;9.20;;;6.95;;
48181;SDS011;33976;47.436;18.876;2022-07-06T03:40:42;10.85;;;7.10;;
48181;SDS011;33976;47.436;18.876;2022-07-06T03:43:10;9.30;;;7.00;;
48181;SDS011;33976;47.436;18.876;2022-07-06T03:45:38;12.82;;;7.82;;
48181;SDS011;33976;47.436;18.876;2022-07-06T03:48:06;8.98;;;6.78;;
48181;SDS011;33976;47.436;18.876;2022-07-06T03:50:35;10.05;;;6.95;;
48181;SDS011;33976;47.436;18.876;2022-07-06T03:53:03;11.18;;;7.60;;
48181;SDS011;33976;47.436;18.876;2022-07-06T03:55:31;10.65;;;7.00;;
48181;SDS011;33976;47.436;18.876;2022-07-06T03:58:01;13.05;;;7.53;;
48181;SDS011;33976;47.436;18.876;2022-07-06T04:00:33;11.63;;;7.50;;
48181;SDS011;33976;47.436;18.876;2022-07-06T04:03:03;9.82;;;6.37;;
48181;SDS011;33976;47.436;18.876;2022-07-06T04:05:31;9.43;;;6.68;;
48181;SDS011;33976;47.436;18.876;2022-07-06T04:07:59;10.48;;;7.05;;
48181;SDS011;33976;47.436;18.876;2022-07-06T04:10:28;11.68;;;7.90;;
48181;SDS011;33976;47.436;18.876;2022-07-06T04:12:56;12.10;;;7.82;;
48181;SDS011;33976;47.436;18.876;2022-07-06T04:15:24;9.20;;;6.85;;
48181;SDS011;33976;47.436;18.876;2022-07-06T04:17:52;9.45;;;7.57;;
48181;SDS011;33976;47.436;18.876;2022-07-06T04:20:22;9.35;;;7.10;;
48181;SDS011;33976;47.436;18.876;2022-07-06T04:22:51;11.12;;;7.82;;
48181;SDS011;33976;47.436;18.876;2022-07-06T04:25:20;9.40;;;7.40;;
48181;SDS011;33976;47.436;18.876;2022-07-06T04:27:48;10.73;;;7.30;;
48181;SDS011;33976;47.436;18.876;2022-07-06T04:30:16;12.30;;;7.47;;
48181;SDS011;33976;47.436;18.876;2022-07-06T04:32:44;10.55;;;7.53;;
48181;SDS011;33976;47.436;18.876;2022-07-06T04:35:12;12.25;;;7.55;;
48181;SDS011;33976;47.436;18.876;2022-07-06T04:37:41;9.93;;;7.50;;
48181;SDS011;33976;47.436;18.876;2022-07-06T04:40:09;13.18;;;7.55;;
48181;SDS011;33976;47.436;18.876;2022-07-06T04:42:45;10.10;;;6.87;;
48181;SDS011;33976;47.436;18.876;2022-07-06T13:55:18;3.92;;;2.25;;
48181;SDS011;33976;47.436;18.876;2022-07-06T13:57:49;8.93;;;2.80;;
48181;SDS011;33976;47.436;18.876;2022-07-06T14:00:17;4.12;;;2.80;;
48181;SDS011;33976;47.436;18.876;2022-07-06T14:02:46;4.12;;;2.75;;
48181;SDS011;33976;47.436;18.876;2022-07-06T14:05:14;5.45;;;2.75;;
48181;SDS011;33976;47.436;18.876;2022-07-06T14:07:42;2.80;;;2.00;;
48181;SDS011;33976;47.436;18.876;2022-07-06T14:10:10;3.22;;;2.40;;
48181;SDS011;33976;47.436;18.876;2022-07-06T14:12:40;4.80;;;2.20;;
48181;SDS011;33976;47.436;18.876;2022-07-06T14:15:08;5.70;;;2.45;;
48181;SDS011;33976;47.436;18.876;2022-07-06T14:17:36;4.82;;;2.75;;
48181;SDS011;33976;47.436;18.876;2022-07-06T14:20:04;3.12;;;1.90;;
48181;SDS011;33976;47.436;18.876;2022-07-06T14:22:33;2.80;;;2.10;;
48181;SDS011;33976;47.436;18.876;2022-07-06T14:25:01;4.10;;;1.92;;
48181;SDS011;33976;47.436;18.876;2022-07-06T14:27:29;2.90;;;2.00;;
48181;SDS011;33976;47.436;18.876;2022-07-06T14:29:57;4.32;;;2.30;;
48181;SDS011;33976;47.436;18.876;2022-07-06T14:32:25;3.25;;;2.10;;
48181;SDS011;33976;47.436;18.876;2022-07-06T14:34:54;3.92;;;1.70;;
48181;SDS011;33976;47.436;18.876;2022-07-06T14:37:22;3.10;;;1.73;;
48181;SDS011;33976;47.436;18.876;2022-07-06T14:39:50;3.05;;;1.75;;
48181;SDS011;33976;47.436;18.876;2022-07-06T14:42:18;2.55;;;1.60;;
48181;SDS011;33976;47.436;18.876;2022-07-06T14:44:46;3.67;;;1.98;;
48181;SDS011;33976;47.436;18.876;2022-07-06T14:47:14;1.77;;;1.48;;
48181;SDS011;33976;47.436;18.876;2022-07-06T14:49:43;1.80;;;1.40;;
48181;SDS011;33976;47.436;18.876;2022-07-06T14:52:11;1.98;;;1.50;;
48181;SDS011;33976;47.436;18.876;2022-07-06T14:54:40;2.20;;;1.37;;
48181;SDS011;33976;47.436;18.876;2022-07-06T14:57:08;3.35;;;1.92;;
48181;SDS011;33976;47.436;18.876;2022-07-06T14:59:37;3.10;;;1.77;;
48181;SDS011;33976;47.436;18.876;2022-07-06T15:02:05;2.10;;;1.60;;
48181;SDS011;33976;47.436;18.876;2022-07-06T15:04:33;7.45;;;1.90;;
48181;SDS011;33976;47.436;18.876;2022-07-06T15:07:01;2.15;;;1.70;;
48181;SDS011;33976;47.436;18.876;2022-07-06T15:09:30;1.92;;;1.70;;
48181;SDS011;33976;47.436;18.876;2022-07-06T15:12:00;1.80;;;1.50;;
48181;SDS011;33976;47.436;18.876;2022-07-06T15:14:30;5.03;;;1.60;;
48181;SDS011;33976;47.436;18.876;2022-07-06T15:17:00;3.55;;;1.60;;
48181;SDS011;33976;47.436;18.876;2022-07-06T15:19:29;2.00;;;1.42;;
48181;SDS011;33976;47.436;18.876;2022-07-06T15:21:58;1.42;;;1.20;;
48181;SDS011;33976;47.436;18.876;2022-07-06T15:24:26;1.95;;;1.52;;
48181;SDS011;33976;47.436;18.876;2022-07-06T15:26:54;3.15;;;1.60;;
48181;SDS011;33976;47.436;18.876;2022-07-06T15:29:22;1.50;;;1.40;;
48181;SDS011;33976;47.436;18.876;2022-07-06T15:31:50;5.40;;;1.58;;
48181;SDS011;33976;47.436;18.876;2022-07-06T15:34:18;1.62;;;1.30;;
48181;SDS011;33976;47.436;18.876;2022-07-06T15:36:46;4.87;;;1.55;;
48181;SDS011;33976;47.436;18.876;2022-07-06T15:39:15;2.83;;;1.80;;
48181;SDS011;33976;47.436;18.876;2022-07-06T15:41:44;3.30;;;1.95;;
48181;SDS011;33976;47.436;18.876;2022-07-06T15:44:12;3.85;;;1.60;;
48181;SDS011;33976;47.436;18.876;2022-07-06T15:46:41;2.22;;;1.30;;
48181;SDS011;33976;47.436;18.876;2022-07-06T15:49:14;6.03;;;1.60;;
48181;SDS011;33976;47.436;18.876;2022-07-06T15:51:45;2.37;;;1.42;;
48181;SDS011;33976;47.436;18.876;2022-07-06T15:54:13;4.43;;;1.30;;
48181;SDS011;33976;47.436;18.876;2022-07-06T15:56:42;3.20;;;1.60;;
48181;SDS011;33976;47.436;18.876;2022-07-06T15:59:10;2.75;;;1.40;;
48181;SDS011;33976;47.436;18.876;2022-07-06T16:01:39;2.33;;;1.67;;
48181;SDS011;33976;47.436;18.876;2022-07-06T16:04:08;2.03;;;1.40;;
48181;SDS011;33976;47.436;18.876;2022-07-06T16:06:37;1.70;;;1.40;;
48181;SDS011;33976;47.436;18.876;2022-07-06T16:09:26;2.42;;;1.65;;
48181;SDS011;33976;47.436;18.876;2022-07-06T16:11:54;3.20;;;1.37;;
48181;SDS011;33976;47.436;18.876;2022-07-06T16:14:22;1.60;;;1.45;;
48181;SDS011;33976;47.436;18.876;2022-07-06T16:16:51;3.20;;;1.70;;
48181;SDS011;33976;47.436;18.876;2022-07-06T16:19:22;2.87;;;1.40;;
48181;SDS011;33976;47.436;18.876;2022-07-06T16:21:52;2.85;;;1.40;;
48181;SDS011;33976;47.436;18.876;2022-07-06T16:24:21;1.55;;;1.40;;
48181;SDS011;33976;47.436;18.876;2022-07-06T16:26:49;1.75;;;1.50;;
48181;SDS011;33976;47.436;18.876;2022-07-06T16:29:17;2.33;;;1.50;;
48181;SDS011;33976;47.436;18.876;2022-07-06T16:31:44;5.07;;;1.40;;
48181;SDS011;33976;47.436;18.876;2022-07-06T16:34:13;2.28;;;1.58;;
48181;SDS011;33976;47.436;18.876;2022-07-06T16:36:41;1.40;;;1.20;;
48181;SDS011;33976;47.436;18.876;2022-07-06T16:39:10;2.53;;;1.70;;
48181;SDS011;33976;47.436;18.876;2022-07-06T16:41:38;3.20;;;1.45;;
48181;SDS011;33976;47.436;18.876;2022-07-06T16:44:14;3.25;;;1.60;;
48181;SDS011;33976;47.436;18.876;2022-07-06T16:46:42;3.45;;;1.50;;
48181;SDS011;33976;47.436;18.876;2022-07-06T16:49:10;4.50;;;1.60;;
48181;SDS011;33976;47.436;18.876;2022-07-06T16:51:38;2.08;;;1.40;;
48181;SDS011;33976;47.436;18.876;2022-07-06T16:54:06;3.50;;;1.70;;
48181;SDS011;33976;47.436;18.876;2022-07-06T16:56:34;3.35;;;1.50;;
48181;SDS011;33976;47.436;18.876;2022-07-06T16:59:02;2.53;;;1.70;;
48181;SDS011;33976;47.436;18.876;2022-07-06T17:01:30;6.40;;;1.90;;
48181;SDS011;33976;47.436;18.876;2022-07-06T17:03:59;6.00;;;1.85;;
48181;SDS011;33976;47.436;18.876;2022-07-06T17:06:27;3.58;;;1.83;;
48181;SDS011;33976;47.436;18.876;2022-07-06T17:08:55;3.40;;;1.62;;
48181;SDS011;33976;47.436;18.876;2022-07-06T17:11:26;12.93;;;1.80;;
48181;SDS011;33976;47.436;18.876;2022-07-06T17:13:54;13.32;;;2.00;;
48181;SDS011;33976;47.436;18.876;2022-07-06T17:16:22;2.70;;;1.70;;
48181;SDS011;33976;47.436;18.876;2022-07-06T17:18:51;2.60;;;1.87;;
48181;SDS011;33976;47.436;18.876;2022-07-06T17:21:19;6.55;;;1.58;;
48181;SDS011;33976;47.436;18.876;2022-07-06T17:23:48;4.47;;;1.95;;
48181;SDS011;33976;47.436;18.876;2022-07-06T17:26:17;6.03;;;2.17;;
48181;SDS011;33976;47.436;18.876;2022-07-06T17:28:45;4.32;;;2.33;;
48181;SDS011;33976;47.436;18.876;2022-07-06T17:31:13;5.28;;;1.70;;
48181;SDS011;33976;47.436;18.876;2022-07-06T17:33:47;3.10;;;2.12;;
48181;SDS011;33976;47.436;18.876;2022-07-06T17:36:15;4.25;;;1.92;;
48181;SDS011;33976;47.436;18.876;2022-07-06T17:38:46;1.67;;;1.40;;
48181;SDS011;33976;47.436;18.876;2022-07-06T17:41:14;2.33;;;1.85;;
48181;SDS011;33976;47.436;18.876;2022-07-06T17:43:47;2.22;;;1.60;;
48181;SDS011;33976;47.436;18.876;2022-07-06T17:46:16;2.15;;;1.65;;
48181;SDS011;33976;47.436;18.876;2022-07-06T17:48:45;3.72;;;1.70;;
48181;SDS011;33976;47.436;18.876;2022-07-06T17:51:13;3.62;;;1.45;;
48181;SDS011;33976;47.436;18.876;2022-07-06T17:53:41;3.53;;;1.60;;
48181;SDS011;33976;47.436;18.876;2022-07-06T17:56:09;3.47;;;1.60;;
48181;SDS011;33976;47.436;18.876;2022-07-06T17:58:37;1.87;;;1.60;;
48181;SDS011;33976;47.436;18.876;2022-07-06T18:01:06;2.65;;;1.50;;
48181;SDS011;33976;47.436;18.876;2022-07-06T18:03:34;2.47;;;1.85;;
48181;SDS011;33976;47.436;18.876;2022-07-06T18:06:02;2.15;;;1.65;;
48181;SDS011;33976;47.436;18.876;2022-07-06T18:08:31;1.77;;;1.40;;
48181;SDS011;33976;47.436;18.876;2022-07-06T18:10:59;1.98;;;1.30;;
48181;SDS011;33976;47.436;18.876;2022-07-06T18:13:28;1.40;;;1.30;;
48181;SDS011;33976;47.436;18.876;2022-07-06T18:15:59;2.15;;;1.50;;
48181;SDS011;33976;47.436;18.876;2022-07-06T18:18:52;1.48;;;1.35;;
48181;SDS011;33976;47.436;18.876;2022-07-06T18:21:20;4.32;;;1.40;;
48181;SDS011;33976;47.436;18.876;2022-07-06T18:23:48;1.35;;;1.20;;
48181;SDS011;33976;47.436;18.876;2022-07-06T18:26:19;4.10;;;1.50;;
48181;SDS011;33976;47.436;18.876;2022-07-06T18:28:47;2.20;;;1.60;;
48181;SDS011;33976;47.436;18.876;2022-07-06T18:31:17;2.22;;;1.15;;
48181;SDS011;33976;47.436;18.876;2022-07-06T18:33:46;3.47;;;1.23;;
48181;SDS011;33976;47.436;18.876;2022-07-06T18:36:21;4.53;;;1.30;;
48181;SDS011;33976;47.436;18.876;2022-07-06T18:38:49;3.40;;;1.45;;
48181;SDS011;33976;47.436;18.876;2022-07-06T18:41:18;2.72;;;1.85;;
48181;SDS011;33976;47.436;18.876;2022-07-06T18:43:46;2.87;;;1.52;;
48181;SDS011;33976;47.436;18.876;2022-07-06T18:46:14;5.30;;;2.35;;
48181;SDS011;33976;47.436;18.876;2022-07-06T18:48:43;4.25;;;1.60;;
48181;SDS011;33976;47.436;18.876;2022-07-06T18:51:11;3.80;;;1.55;;
48181;SDS011;33976;47.436;18.876;2022-07-06T18:53:39;1.70;;;1.23;;
48181;SDS011;33976;47.436;18.876;2022-07-06T18:56:08;4.25;;;1.20;;
48181;SDS011;33976;47.436;18.876;2022-07-06T18:58:36;6.25;;;1.65;;
48181;SDS011;33976;47.436;18.876;2022-07-06T19:01:04;6.55;;;1.73;;
48181;SDS011;33976;47.436;18.876;2022-07-06T19:03:33;2.70;;;1.85;;
48181;SDS011;33976;47.436;18.876;2022-07-06T19:06:00;4.00;;;1.85;;
48181;SDS011;33976;47.436;18.876;2022-07-06T19:08:28;3.62;;;1.48;;
48181;SDS011;33976;47.436;18.876;2022-07-06T19:10:57;9.10;;;1.80;;
48181;SDS011;33976;47.436;18.876;2022-07-06T19:13:25;2.97;;;1.67;;
48181;SDS011;33976;47.436;18.876;2022-07-06T19:15:53;4.40;;;1.60;;
48181;SDS011;33976;47.436;18.876;2022-07-06T19:18:23;2.10;;;1.70;;
48181;SDS011;33976;47.436;18.876;2022-07-06T19:20:51;8.10;;;1.80;;
48181;SDS011;33976;47.436;18.876;2022-07-06T19:23:19;1.55;;;1.35;;
48181;SDS011;33976;47.436;18.876;2022-07-06T19:25:47;2.28;;;1.50;;
48181;SDS011;33976;47.436;18.876;2022-07-06T19:28:15;2.92;;;1.70;;
48181;SDS011;33976;47.436;18.876;2022-07-06T19:30:43;2.25;;;1.45;;
48181;SDS011;33976;47.436;18.876;2022-07-06T19:33:12;2.97;;;1.50;;
48181;SDS011;33976;47.436;18.876;2022-07-06T19:35:40;5.00;;;1.58;;
48181;SDS011;33976;47.436;18.876;2022-07-06T19:38:08;2.75;;;1.90;;
48181;SDS011;33976;47.436;18.876;2022-07-06T19:40:36;2.28;;;1.60;;
48181;SDS011;33976;47.436;18.876;2022-07-06T19:43:04;2.87;;;1.90;;
48181;SDS011;33976;47.436;18.876;2022-07-06T19:45:32;2.42;;;1.70;;
48181;SDS011;33976;47.436;18.876;2022-07-06T19:48:02;3.00;;;1.80;;
48181;SDS011;33976;47.436;18.876;2022-07-06T19:50:32;2.00;;;1.42;;
48181;SDS011;33976;47.436;18.876;2022-07-06T19:53:00;2.28;;;1.60;;
48181;SDS011;33976;47.436;18.876;2022-07-06T19:55:29;2.45;;;1.80;;
48181;SDS011;33976;47.436;18.876;2022-07-06T19:57:57;3.03;;;1.80;;
48181;SDS011;33976;47.436;18.876;2022-07-06T20:00:26;1.75;;;1.60;;
48181;SDS011;33976;47.436;18.876;2022-07-06T20:02:56;2.60;;;1.77;;
48181;SDS011;33976;47.436;18.876;2022-07-06T20:05:24;2.30;;;1.75;;
48181;SDS011;33976;47.436;18.876;2022-07-06T20:07:52;3.28;;;1.80;;
48181;SDS011;33976;47.436;18.876;2022-07-06T20:10:20;3.85;;;1.80;;
48181;SDS011;33976;47.436;18.876;2022-07-06T20:12:48;5.32;;;1.85;;
48181;SDS011;33976;47.436;18.876;2022-07-06T20:15:16;2.47;;;1.83;;
48181;SDS011;33976;47.436;18.876;2022-07-06T20:17:47;5.97;;;1.75;;
48181;SDS011;33976;47.436;18.876;2022-07-06T20:20:15;4.97;;;1.75;;
48181;SDS011;33976;47.436;18.876;2022-07-06T20:22:43;3.60;;;1.80;;
48181;SDS011;33976;47.436;18.876;2022-07-06T20:25:11;2.62;;;1.60;;
48181;SDS011;33976;47.436;18.876;2022-07-06T20:27:39;3.22;;;1.80;;
48181;SDS011;33976;47.436;18.876;2022-07-06T20:30:07;2.80;;;1.80;;
48181;SDS011;33976;47.436;18.876;2022-07-06T20:32:36;5.70;;;1.95;;
48181;SDS011;33976;47.436;18.876;2022-07-06T20:35:05;2.33;;;1.62;;
48181;SDS011;33976;47.436;18.876;2022-07-06T20:37:34;3.58;;;1.85;;
48181;SDS011;33976;47.436;18.876;2022-07-06T20:40:03;3.37;;;2.03;;
48181;SDS011;33976;47.436;18.876;2022-07-06T20:42:31;7.53;;;1.70;;
48181;SDS011;33976;47.436;18.876;2022-07-06T20:45:00;2.42;;;1.80;;
48181;SDS011;33976;47.436;18.876;2022-07-06T20:47:28;3.47;;;1.62;;
48181;SDS011;33976;47.436;18.876;2022-07-06T20:49:55;2.53;;;1.85;;
48181;SDS011;33976;47.436;18.876;2022-07-06T20:52:23;1.80;;;1.62;;
48181;SDS011;33976;47.436;18.876;2022-07-06T20:54:52;2.90;;;2.20;;
48181;SDS011;33976;47.436;18.876;2022-07-06T20:57:25;2.37;;;1.77;;
48181;SDS011;33976;47.436;18.876;2022-07-06T20:59:53;2.33;;;1.80;;
48181;SDS011;33976;47.436;18.876;2022-07-06T21:02:21;2.58;;;1.60;;
48181;SDS011;33976;47.436;18.876;2022-07-06T21:04:49;1.92;;;1.60;;
48181;SDS011;33976;47.436;18.876;2022-07-06T21:07:18;6.43;;;2.28;;
48181;SDS011;33976;47.436;18.876;2022-07-06T21:09:46;2.90;;;1.70;;
48181;SDS011;33976;47.436;18.876;2022-07-06T21:12:14;2.65;;;1.73;;
48181;SDS011;33976;47.436;18.876;2022-07-06T21:14:43;2.12;;;1.80;;
48181;SDS011;33976;47.436;18.876;2022-07-06T21:17:11;2.22;;;1.65;;
48181;SDS011;33976;47.436;18.876;2022-07-06T21:19:38;3.17;;;1.80;;
48181;SDS011;33976;47.436;18.876;2022-07-06T21:22:07;1.87;;;1.30;;
48181;SDS011;33976;47.436;18.876;2022-07-06T21:24:34;3.33;;;1.80;;
48181;SDS011;33976;47.436;18.876;2022-07-06T21:27:02;1.75;;;1.50;;
48181;SDS011;33976;47.436;18.876;2022-07-06T21:29:31;3.25;;;1.60;;
48181;SDS011;33976;47.436;18.876;2022-07-06T21:31:58;3.17;;;1.90;;
48181;SDS011;33976;47.436;18.876;2022-07-06T21:34:28;3.90;;;1.77;;
48181;SDS011;33976;47.436;18.876;2022-07-06T21:36:57;2.05;;;1.42;;
48181;SDS011;33976;47.436;18.876;2022-07-06T21:39:25;3.20;;;1.70;;
48181;SDS011;33976;47.436;18.876;2022-07-06T21:41:53;2.08;;;1.70;;
48181;SDS011;33976;47.436;18.876;2022-07-06T21:44:21;2.03;;;1.60;;
48181;SDS011;33976;47.436;18.876;2022-07-06T21:46:49;2.37;;;1.73;;
48181;SDS011;33976;47.436;18.876;2022-07-06T21:49:17;2.97;;;1.70;;
48181;SDS011;33976;47.436;18.876;2022-07-06T21:51:45;2.10;;;1.65;;
48181;SDS011;33976;47.436;18.876;2022-07-06T21:54:13;2.97;;;1.52;;
48181;SDS011;33976;47.436;18.876;2022-07-06T21:56:40;2.42;;;1.80;;
48181;SDS011;33976;47.436;18.876;2022-07-06T21:59:09;1.58;;;1.33;;
48181;SDS011;33976;47.436;18.876;2022-07-06T22:01:37;5.90;;;1.60;;
48181;SDS011;33976;47.436;18.876;2022-07-06T22:04:05;3.45;;;1.73;;
48181;SDS011;33976;47.436;18.876;2022-07-06T22:06:33;2.85;;;1.70;;
48181;SDS011;33976;47.436;18.876;2022-07-06T22:09:01;1.80;;;1.42;;
48181;SDS011;33976;47.436;18.876;2022-07-06T22:11:29;3.03;;;1.70;;
48181;SDS011;33976;47.436;18.876;2022-07-06T22:13:57;1.60;;;1.50;;
48181;SDS011;33976;47.436;18.876;2022-07-06T22:16:24;2.50;;;1.60;;
48181;SDS011;33976;47.436;18.876;2022-07-06T22:18:54;6.35;;;1.70;;
48181;SDS011;33976;47.436;18.876;2022-07-06T22:21:22;2.55;;;1.67;;
48181;SDS011;33976;47.436;18.876;2022-07-06T22:23:50;3.28;;;1.77;;
48181;SDS011;33976;47.436;18.876;2022-07-06T22:26:18;3.50;;;1.50;;
48181;SDS011;33976;47.436;18.876;2022-07-06T22:28:47;5.37;;;1.70;;
48181;SDS011;33976;47.436;18.876;2022-07-06T22:31:15;3.00;;;1.90;;
48181;SDS011;33976;47.436;18.876;2022-07-06T22:33:44;4.18;;;1.48;;
48181;SDS011;33976;47.436;18.876;2022-07-06T22:36:12;2.50;;;1.58;;
48181;SDS011;33976;47.436;18.876;2022-07-06T22:38:45;4.03;;;1.48;;
48181;SDS011;33976;47.436;18.876;2022-07-06T22:41:13;4.47;;;1.55;;
48181;SDS011;33976;47.436;18.876;2022-07-06T22:43:41;2.28;;;1.73;;
48181;SDS011;33976;47.436;18.876;2022-07-06T22:46:12;2.22;;;1.50;;
48181;SDS011;33976;47.436;18.876;2022-07-06T22:48:44;4.20;;;1.73;;
48181;SDS011;33976;47.436;18.876;2022-07-06T22:51:12;1.65;;;1.50;;
48181;SDS011;33976;47.436;18.876;2022-07-06T22:53:40;4.43;;;1.42;;
48181;SDS011;33976;47.436;18.876;2022-07-06T22:56:08;2.03;;;1.80;;
48181;SDS011;33976;47.436;18.876;2022-07-06T22:58:37;1.92;;;1.62;;
48181;SDS011;33976;47.436;18.876;2022-07-06T23:01:07;1.33;;;1.20;;
48181;SDS011;33976;47.436;18.876;2022-07-06T23:03:35;3.45;;;1.80;;
48181;SDS011;33976;47.436;18.876;2022-07-06T23:06:03;2.25;;;1.80;;
48181;SDS011;33976;47.436;18.876;2022-07-06T23:08:31;2.53;;;2.00;;
48181;SDS011;33976;47.436;18.876;2022-07-06T23:10:59;3.03;;;1.60;;
48181;SDS011;33976;47.436;18.876;2022-07-06T23:13:27;3.17;;;1.60;;
48181;SDS011;33976;47.436;18.876;2022-07-06T23:15:56;2.05;;;1.60;;
48181;SDS011;33976;47.436;18.876;2022-07-06T23:18:24;3.37;;;1.60;;
48181;SDS011;33976;47.436;18.876;2022-07-06T23:20:52;6.82;;;1.80;;
48181;SDS011;33976;47.436;18.876;2022-07-06T23:23:19;3.03;;;1.92;;
48181;SDS011;33976;47.436;18.876;2022-07-06T23:25:47;2.78;;;1.70;;
48181;SDS011;33976;47.436;18.876;2022-07-06T23:28:15;3.03;;;1.92;;
48181;SDS011;33976;47.436;18.876;2022-07-06T23:30:43;2.55;;;1.70;;
48181;SDS011;33976;47.436;18.876;2022-07-06T23:33:11;5.10;;;1.70;;
48181;SDS011;33976;47.436;18.876;2022-07-06T23:35:39;1.80;;;1.60;;
48181;SDS011;33976;47.436;18.876;2022-07-06T23:38:07;4.70;;;2.00;;
48181;SDS011;33976;47.436;18.876;2022-07-06T23:40:35;3.55;;;1.80;;
48181;SDS011;33976;47.436;18.876;2022-07-06T23:43:03;2.30;;;1.70;;
48181;SDS011;33976;47.436;18.876;2022-07-06T23:45:31;3.05;;;1.77;;
48181;SDS011;33976;47.436;18.876;2022-07-06T23:47:58;4.15;;;2.22;;
48181;SDS011;33976;47.436;18.876;2022-07-06T23:50:26;3.95;;;1.77;;
48181;SDS011;33976;47.436;18.876;2022-07-06T23:52:54;2.70;;;2.00;;